createdAt,value
2023-01-07T00:01:31.896Z,11.79
2023-01-07T00:04:00.989Z,11.80
2023-01-07T00:06:35.209Z,11.83
2023-01-07T00:09:02.866Z,11.84
2023-01-07T00:11:32.776Z,11.85
2023-01-07T00:14:01.049Z,11.85
2023-01-07T00:16:30.487Z,11.84
2023-01-07T00:18:59.078Z,11.85
2023-01-07T00:21:27.440Z,11.88
2023-01-07T00:24:00.519Z,11.85
2023-01-07T00:26:30.561Z,11.87
2023-01-07T00:28:58.648Z,11.88
2023-01-07T00:31:28.351Z,11.89
2023-01-07T00:33:55.472Z,11.88
2023-01-07T00:36:25.057Z,11.86
2023-01-07T00:39:00.189Z,11.80
2023-01-07T00:41:27.491Z,11.84
2023-01-07T00:43:54.946Z,11.85
2023-01-07T00:46:21.958Z,11.84
2023-01-07T00:48:49.032Z,11.81
2023-01-07T00:51:17.869Z,11.76
2023-01-07T00:53:44.745Z,11.77
2023-01-07T00:56:14.565Z,11.74
2023-01-07T00:58:41.944Z,11.73
2023-01-07T01:01:09.632Z,11.72
2023-01-07T01:03:36.715Z,11.72
2023-01-07T01:06:08.954Z,11.71
2023-01-07T01:08:36.014Z,11.70
2023-01-07T01:11:07.714Z,11.69
2023-01-07T01:13:35.518Z,11.71
2023-01-07T01:16:07.284Z,11.69
2023-01-07T01:18:34.115Z,11.67
2023-01-07T01:21:05.302Z,11.63
2023-01-07T01:23:32.098Z,11.62
2023-01-07T01:26:11.769Z,11.51
2023-01-07T01:28:38.957Z,11.50
2023-01-07T01:31:08.344Z,11.41
2023-01-07T01:34:01.198Z,11.30
2023-01-07T01:36:28.302Z,11.20
2023-01-07T01:38:57.805Z,11.08
2023-01-07T01:41:27.113Z,10.97
2023-01-07T01:43:55.488Z,10.87
2023-01-07T01:46:51.419Z,10.78
2023-01-07T01:49:26.311Z,10.63
2023-01-07T01:52:03.142Z,10.58
2023-01-07T01:54:30.764Z,10.55
2023-01-07T01:57:03.012Z,10.50
2023-01-07T01:59:33.411Z,10.46
2023-01-07T02:02:04.094Z,10.43
2023-01-07T02:04:31.758Z,10.44
2023-01-07T02:07:01.212Z,10.44
2023-01-07T02:09:29.989Z,10.46
2023-01-07T02:11:56.912Z,10.48
2023-01-07T02:14:45.958Z,10.46
2023-01-07T02:17:28.435Z,10.48
2023-01-07T02:20:01.095Z,10.53
2023-01-07T02:23:08.795Z,10.46
2023-01-07T02:25:42.035Z,10.62
2023-01-07T02:28:27.175Z,10.38
2023-01-07T02:31:21.993Z,10.54
2023-01-07T02:33:58.238Z,10.71
2023-01-07T02:36:54.058Z,10.72
2023-01-07T02:39:29.947Z,10.73
2023-01-07T02:42:48.124Z,10.72
2023-01-07T02:45:32.027Z,10.87
2023-01-07T02:48:06.860Z,10.90
2023-01-07T02:50:34.302Z,11.00
2023-01-07T02:53:01.031Z,11.04
2023-01-07T02:55:46.187Z,10.98
2023-01-07T02:58:36.837Z,11.01
2023-01-07T03:01:34.196Z,10.96
2023-01-07T03:04:35.972Z,10.98
2023-01-07T03:07:13.182Z,11.03
2023-01-07T03:09:54.971Z,11.03
2023-01-07T03:12:34.307Z,11.05
2023-01-07T03:15:21.991Z,11.05
2023-01-07T03:18:13.510Z,11.07
2023-01-07T03:20:42.496Z,11.09
2023-01-07T03:23:13.325Z,11.10
2023-01-07T03:25:46.584Z,11.05
2023-01-07T03:28:15.941Z,10.76
2023-01-07T03:30:43.524Z,10.99
2023-01-07T03:33:25.693Z,10.95
2023-01-07T03:35:56.603Z,11.01
2023-01-07T03:38:24.954Z,11.04
2023-01-07T03:40:53.116Z,11.04
2023-01-07T03:43:22.672Z,11.04
2023-01-07T03:45:52.096Z,11.08
2023-01-07T03:48:19.509Z,11.05
2023-01-07T03:50:48.571Z,11.09
2023-01-07T03:53:15.497Z,11.08
2023-01-07T03:55:45.289Z,11.09
2023-01-07T03:58:12.095Z,11.11
2023-01-07T04:00:39.021Z,11.14
2023-01-07T04:03:13.860Z,11.14
2023-01-07T04:05:44.591Z,11.14
2023-01-07T04:08:12.338Z,11.11
2023-01-07T04:10:39.905Z,11.09
2023-01-07T04:13:06.781Z,11.06
2023-01-07T04:15:33.533Z,11.07
2023-01-07T04:18:00.272Z,11.07
2023-01-07T04:20:28.095Z,11.11
2023-01-07T04:22:54.890Z,11.11
2023-01-07T04:25:21.670Z,11.13
2023-01-07T04:27:49.291Z,11.12
2023-01-07T04:30:16.214Z,11.12
2023-01-07T04:32:43.203Z,11.10
2023-01-07T04:35:10.677Z,11.10
2023-01-07T04:37:38.289Z,11.07
2023-01-07T04:40:06.339Z,11.01
2023-01-07T04:42:35.521Z,10.93
2023-01-07T04:45:04.305Z,10.87
2023-01-07T04:47:31.775Z,10.82
2023-01-07T04:49:59.197Z,10.78
2023-01-07T04:52:30.275Z,10.76
2023-01-07T04:54:59.292Z,10.72
2023-01-07T04:57:26.071Z,10.68
2023-01-07T04:59:53.491Z,10.62
2023-01-07T05:02:20.465Z,10.59
2023-01-07T05:04:48.072Z,10.55
2023-01-07T05:07:16.730Z,10.52
2023-01-07T05:09:43.753Z,10.50
2023-01-07T05:12:11.252Z,10.45
2023-01-07T05:14:38.747Z,10.41
2023-01-07T05:17:05.671Z,10.38
2023-01-07T05:19:32.705Z,10.34
2023-01-07T05:22:01.010Z,10.31
2023-01-07T05:24:28.337Z,10.27
2023-01-07T05:26:55.213Z,10.27
2023-01-07T05:29:22.845Z,10.20
2023-01-07T05:31:49.693Z,10.15
2023-01-07T05:34:16.638Z,10.11
2023-01-07T05:36:45.457Z,10.08
2023-01-07T05:39:12.326Z,10.05
2023-01-07T05:41:39.114Z,10.02
2023-01-07T05:44:06.622Z,10.00
2023-01-07T05:46:33.484Z,9.98
2023-01-07T05:49:00.347Z,9.95
2023-01-07T05:51:27.096Z,9.89
2023-01-07T05:53:53.949Z,9.86
2023-01-07T05:56:20.655Z,9.84
2023-01-07T05:58:47.426Z,9.77
2023-01-07T06:01:14.273Z,9.74
2023-01-07T06:03:41.250Z,9.71
2023-01-07T06:06:08.105Z,9.68
2023-01-07T06:08:38.980Z,9.60
2023-01-07T06:11:07.076Z,9.57
2023-01-07T06:13:34.103Z,9.54
2023-01-07T06:16:09.066Z,9.48
2023-01-07T06:18:36.718Z,9.50
2023-01-07T06:21:04.091Z,9.45
2023-01-07T06:23:31.530Z,9.41
2023-01-07T06:25:58.441Z,9.39
2023-01-07T06:28:25.186Z,9.35
2023-01-07T06:30:51.949Z,9.28
2023-01-07T06:33:18.746Z,9.27
2023-01-07T06:35:46.350Z,9.22
2023-01-07T06:38:13.158Z,9.24
2023-01-07T06:40:39.997Z,9.21
2023-01-07T06:43:06.765Z,9.19
2023-01-07T06:45:33.495Z,9.16
2023-01-07T06:48:00.385Z,9.17
2023-01-07T06:50:27.378Z,9.16
2023-01-07T06:52:54.268Z,9.16
2023-01-07T06:55:20.982Z,9.15
2023-01-07T06:57:47.824Z,9.14
2023-01-07T07:00:15.118Z,9.14
2023-01-07T07:02:41.879Z,9.15
2023-01-07T07:05:08.793Z,9.16
2023-01-07T07:07:35.761Z,9.24
2023-01-07T07:10:07.306Z,9.35
2023-01-07T07:12:35.448Z,9.48
2023-01-07T07:15:02.545Z,9.68
2023-01-07T07:17:30.773Z,9.84
2023-01-07T07:19:57.560Z,10.02
2023-01-07T07:22:24.281Z,10.16
2023-01-07T07:24:51.053Z,10.31
2023-01-07T07:27:17.797Z,10.43
2023-01-07T07:29:44.831Z,10.50
2023-01-07T07:32:11.630Z,10.58
2023-01-07T07:34:38.391Z,10.66
2023-01-07T07:37:06.437Z,10.75
2023-01-07T07:39:34.095Z,10.79
2023-01-07T07:42:04.214Z,10.91
2023-01-07T07:44:31.126Z,11.01
2023-01-07T07:46:57.979Z,11.05
2023-01-07T07:49:24.823Z,11.07
2023-01-07T07:51:51.807Z,11.02
2023-01-07T07:54:18.628Z,10.92
2023-01-07T07:56:45.408Z,10.93
2023-01-07T07:59:12.267Z,10.94
2023-01-07T08:01:39.200Z,10.88
2023-01-07T08:04:06.106Z,10.79
2023-01-07T08:06:34.332Z,10.74
2023-01-07T08:09:01.492Z,10.74
2023-01-07T08:11:28.711Z,10.77
2023-01-07T08:13:55.475Z,10.82
2023-01-07T08:16:22.533Z,10.92
2023-01-07T08:18:49.331Z,11.02
2023-01-07T08:21:16.227Z,11.12
2023-01-07T08:23:43.184Z,11.23
2023-01-07T08:26:09.959Z,11.35
2023-01-07T08:28:38.221Z,11.50
2023-01-07T08:31:07.066Z,11.68
2023-01-07T08:33:37.759Z,11.79
2023-01-07T08:36:09.398Z,11.83
2023-01-07T08:38:36.279Z,11.76
2023-01-07T08:41:04.087Z,11.72
2023-01-07T08:43:30.885Z,11.79
2023-01-07T08:45:57.667Z,11.84
2023-01-07T08:48:24.498Z,11.87
2023-01-07T08:50:53.098Z,11.88
2023-01-07T08:53:20.859Z,11.85
2023-01-07T08:55:47.642Z,11.86
2023-01-07T08:58:14.636Z,11.83
2023-01-07T09:00:42.165Z,11.85
2023-01-07T09:03:09.152Z,11.85
2023-01-07T09:05:36.138Z,11.83
2023-01-07T09:08:04.336Z,11.87
2023-01-07T09:10:32.292Z,11.90
2023-01-07T09:13:00.147Z,11.92
2023-01-07T09:15:26.960Z,11.91
2023-01-07T09:17:53.781Z,11.97
2023-01-07T09:20:20.674Z,12.08
2023-01-07T09:22:47.701Z,12.16
2023-01-07T09:25:14.556Z,12.23
2023-01-07T09:27:42.429Z,12.26
2023-01-07T09:30:09.783Z,12.35
2023-01-07T09:32:36.651Z,12.41
2023-01-07T09:35:04.281Z,12.37
2023-01-07T09:37:31.157Z,12.39
2023-01-07T09:39:57.950Z,12.49
2023-01-07T09:42:44.395Z,12.50
2023-01-07T09:45:34.601Z,12.43
2023-01-07T09:48:06.805Z,12.55
2023-01-07T09:51:02.679Z,12.41
2023-01-07T09:53:43.177Z,12.60
2023-01-07T09:56:23.468Z,12.69
2023-01-07T09:58:50.507Z,12.79
2023-01-07T10:01:22.157Z,12.85
2023-01-07T10:04:10.059Z,12.75
2023-01-07T10:06:51.474Z,12.72
2023-01-07T10:09:36.089Z,12.75
2023-01-07T10:12:11.760Z,12.64
2023-01-07T10:15:03.151Z,12.74
2023-01-07T10:18:00.824Z,12.78
2023-01-07T10:20:44.024Z,12.84
2023-01-07T10:23:12.649Z,12.94
2023-01-07T10:25:46.892Z,12.93
2023-01-07T10:28:36.262Z,12.88
2023-01-07T10:31:05.922Z,12.92
2023-01-07T10:33:34.005Z,12.98
2023-01-07T10:36:28.845Z,12.99
2023-01-07T10:39:20.853Z,13.08
2023-01-07T10:42:29.144Z,12.99
2023-01-07T10:45:16.591Z,13.16
2023-01-07T10:48:05.903Z,13.14
2023-01-07T10:50:56.427Z,13.20
2023-01-07T10:53:41.320Z,13.27
2023-01-07T10:56:46.596Z,13.21
2023-01-07T10:59:18.125Z,13.47
2023-01-07T11:01:52.918Z,13.52
2023-01-07T11:04:20.347Z,13.46
2023-01-07T11:07:11.271Z,13.37
2023-01-07T11:09:42.497Z,13.47
2023-01-07T11:12:41.743Z,13.44
2023-01-07T11:15:36.932Z,13.48
2023-01-07T11:18:20.242Z,13.56
2023-01-07T11:20:54.854Z,13.52
2023-01-07T11:23:34.348Z,13.48
2023-01-07T11:26:09.386Z,13.47
2023-01-07T11:28:40.873Z,13.55
2023-01-07T11:31:07.663Z,13.61
2023-01-07T11:34:01.860Z,13.53
2023-01-07T11:36:41.774Z,13.48
2023-01-07T11:39:18.541Z,13.47
2023-01-07T11:41:55.981Z,13.43
2023-01-07T11:44:23.268Z,13.41
2023-01-07T11:46:50.310Z,13.37
2023-01-07T11:49:30.589Z,13.26
2023-01-07T11:51:58.814Z,13.23
2023-01-07T11:54:34.582Z,13.21
2023-01-07T11:57:25.401Z,13.21
2023-01-07T12:00:13.163Z,13.28
2023-01-07T12:02:40.334Z,13.45
2023-01-07T12:05:22.887Z,13.41
2023-01-07T12:07:51.910Z,13.46
2023-01-07T12:10:29.028Z,13.42
2023-01-07T12:12:56.106Z,13.39
2023-01-07T12:15:30.855Z,13.21
2023-01-07T12:18:20.158Z,12.95
2023-01-07T12:21:18.308Z,12.76
2023-01-07T12:24:03.965Z,12.64
2023-01-07T12:26:47.254Z,12.46
2023-01-07T12:29:29.083Z,12.36
2023-01-07T12:32:26.948Z,12.18
2023-01-07T12:35:14.217Z,12.15
2023-01-07T12:37:53.955Z,11.96
2023-01-07T12:40:48.188Z,11.78
2023-01-07T12:43:17.721Z,11.84
2023-01-07T12:45:49.783Z,11.84
2023-01-07T12:48:34.686Z,11.81
2023-01-07T12:51:24.212Z,11.87
2023-01-07T12:54:14.255Z,11.76
2023-01-07T12:56:59.335Z,11.90
2023-01-07T12:59:46.040Z,11.96
2023-01-07T13:02:33.274Z,11.98
2023-01-07T13:05:06.002Z,12.04
2023-01-07T13:07:46.203Z,12.04
2023-01-07T13:10:28.481Z,12.01
2023-01-07T13:13:02.854Z,12.05
2023-01-07T13:15:36.032Z,11.98
2023-01-07T13:18:11.519Z,11.68
2023-01-07T13:21:05.214Z,11.79
2023-01-07T13:23:50.339Z,11.58
2023-01-07T13:26:52.199Z,11.72
2023-01-07T13:29:34.022Z,11.68
2023-01-07T13:32:23.134Z,11.61
2023-01-07T13:35:03.324Z,11.64
2023-01-07T13:37:36.123Z,11.56
2023-01-07T13:40:48.958Z,11.48
2023-01-07T13:43:39.963Z,11.44
2023-01-07T13:46:16.383Z,11.40
2023-01-07T13:48:50.416Z,11.33
2023-01-07T13:51:28.523Z,11.33
2023-01-07T13:53:55.426Z,11.32
2023-01-07T13:56:25.960Z,11.29
2023-01-07T13:58:57.605Z,11.25
2023-01-07T14:01:26.764Z,11.24
2023-01-07T14:04:09.236Z,11.27
2023-01-07T14:06:42.012Z,11.23
2023-01-07T14:09:11.135Z,11.13
2023-01-07T14:11:41.940Z,11.11
2023-01-07T14:14:13.071Z,11.02
2023-01-07T14:16:48.404Z,10.92
2023-01-07T14:19:21.191Z,10.97
2023-01-07T14:22:15.606Z,10.83
2023-01-07T14:25:12.533Z,10.79
2023-01-07T14:28:00.864Z,10.70
2023-01-07T14:30:43.776Z,10.72
2023-01-07T14:33:23.694Z,10.69
2023-01-07T14:36:03.427Z,10.67
2023-01-07T14:38:30.151Z,10.66
2023-01-07T14:41:03.199Z,10.61
2023-01-07T14:43:42.394Z,10.58
2023-01-07T14:46:22.097Z,10.55
2023-01-07T14:49:04.134Z,10.44
2023-01-07T14:51:51.736Z,10.41
2023-01-07T14:54:28.308Z,10.39
2023-01-07T14:57:19.378Z,10.31
2023-01-07T15:00:12.480Z,10.31
2023-01-07T15:03:10.003Z,10.14
2023-01-07T15:05:39.620Z,10.18
2023-01-07T15:08:29.880Z,10.18
2023-01-07T15:11:17.792Z,10.12
2023-01-07T15:14:40.600Z,10.02
2023-01-07T15:17:11.158Z,10.01
2023-01-07T15:19:39.807Z,9.98
2023-01-07T15:22:34.637Z,9.88
2023-01-07T15:25:29.264Z,9.87
2023-01-07T15:31:41.333Z,9.77
2023-01-07T15:34:16.734Z,9.74
2023-01-07T15:36:51.792Z,9.75
2023-01-07T15:39:29.305Z,9.72
2023-01-07T15:41:57.747Z,9.69
2023-01-07T15:44:41.562Z,9.58
2023-01-07T15:47:41.368Z,9.51
2023-01-07T15:50:29.320Z,9.42
2023-01-07T15:53:01.820Z,9.42
2023-01-07T15:55:40.945Z,9.38
2023-01-07T15:58:32.737Z,9.28
2023-01-07T16:01:02.521Z,9.23
2023-01-07T16:03:30.705Z,9.18
2023-01-07T16:05:59.819Z,9.15
2023-01-07T16:08:30.818Z,9.13
2023-01-07T16:11:05.816Z,9.09
2023-01-07T16:13:36.883Z,9.05
2023-01-07T16:16:06.598Z,9.00
2023-01-07T16:18:33.913Z,8.99
2023-01-07T16:21:12.784Z,8.99
2023-01-07T16:23:40.840Z,8.94
2023-01-07T16:26:36.406Z,8.85
2023-01-07T16:29:14.758Z,8.91
2023-01-07T16:31:41.884Z,8.91
2023-01-07T16:34:34.058Z,8.76
2023-01-07T16:37:04.532Z,8.81
2023-01-07T16:39:34.992Z,8.73
2023-01-07T16:42:20.736Z,8.71
2023-01-07T16:44:49.617Z,8.64
2023-01-07T16:47:36.404Z,8.57
2023-01-07T16:50:20.212Z,8.49
2023-01-07T16:52:55.846Z,8.50
2023-01-07T16:55:44.322Z,8.36
2023-01-07T16:58:32.489Z,8.36
2023-01-07T17:01:02.425Z,8.43
2023-01-07T17:03:33.432Z,8.39
2023-01-07T17:06:14.966Z,8.38
2023-01-07T17:09:30.065Z,8.34
2023-01-07T17:12:01.138Z,8.39
2023-01-07T17:14:48.133Z,8.41
2023-01-07T17:17:17.941Z,8.46
2023-01-07T17:19:57.759Z,8.53
2023-01-07T17:22:38.288Z,8.57
2023-01-07T17:25:30.495Z,8.55
2023-01-07T17:27:59.786Z,8.68
2023-01-07T17:30:34.591Z,8.65
2023-01-07T17:33:01.745Z,8.70
2023-01-07T17:35:54.631Z,8.76
2023-01-07T17:38:21.717Z,8.78
2023-01-07T17:40:48.956Z,8.84
2023-01-07T17:43:34.734Z,8.84
2023-01-07T17:46:02.188Z,8.90
2023-01-07T17:48:29.329Z,8.95
2023-01-07T17:50:57.266Z,9.00
2023-01-07T17:53:42.511Z,8.91
2023-01-07T17:56:09.482Z,8.95
2023-01-07T17:58:37.747Z,9.07
2023-01-07T18:01:13.209Z,9.07
2023-01-07T18:03:40.476Z,9.05
2023-01-07T18:06:18.916Z,9.03
2023-01-07T18:08:47.177Z,9.09
2023-01-07T18:11:36.193Z,9.07
2023-01-07T18:14:07.209Z,9.18
2023-01-07T18:16:34.681Z,9.29
2023-01-07T18:19:01.606Z,9.33
2023-01-07T18:21:28.522Z,9.33
2023-01-07T18:24:09.963Z,9.35
2023-01-07T18:27:00.507Z,9.28
2023-01-07T18:29:30.363Z,9.25
2023-01-07T18:31:57.384Z,9.23
2023-01-07T18:34:24.259Z,9.18
2023-01-07T18:36:51.056Z,9.28
2023-01-07T18:39:29.862Z,9.26
2023-01-07T18:41:56.614Z,9.26
2023-01-07T18:44:24.607Z,9.29
2023-01-07T18:46:51.665Z,9.30
2023-01-07T18:49:18.803Z,9.20
2023-01-07T18:51:48.741Z,9.16
2023-01-07T18:54:19.055Z,9.13
2023-01-07T18:56:49.805Z,9.08
2023-01-07T18:59:16.706Z,8.96
2023-01-07T19:01:49.737Z,8.87
2023-01-07T19:04:22.261Z,8.84
2023-01-07T19:06:49.064Z,8.81
2023-01-07T19:09:19.128Z,8.73
2023-01-07T19:11:47.389Z,8.68
2023-01-07T19:14:16.098Z,8.64
2023-01-07T19:16:43.452Z,8.63
2023-01-07T19:19:47.851Z,8.55
2023-01-07T19:22:20.231Z,8.59
2023-01-07T19:24:47.000Z,8.64
2023-01-07T19:27:13.909Z,8.70
2023-01-07T19:29:40.760Z,8.75
2023-01-07T19:32:10.367Z,8.71
2023-01-07T19:34:39.819Z,8.72
2023-01-07T19:37:09.969Z,8.70
2023-01-07T19:39:37.455Z,8.66
2023-01-07T19:42:04.780Z,8.61
2023-01-07T19:44:34.432Z,8.54
2023-01-07T19:47:01.233Z,8.53
2023-01-07T19:49:29.906Z,8.48
2023-01-07T19:51:56.883Z,8.46
2023-01-07T19:54:23.663Z,8.46
2023-01-07T19:56:50.471Z,8.47
2023-01-07T19:59:17.351Z,8.42
2023-01-07T20:01:45.365Z,8.34
2023-01-07T20:04:12.478Z,8.31
2023-01-07T20:06:39.383Z,8.32
2023-01-07T20:09:10.820Z,8.33
2023-01-07T20:11:42.525Z,8.32
2023-01-07T20:14:10.650Z,8.38
2023-01-07T20:16:39.684Z,8.36
2023-01-07T20:19:07.507Z,8.35
2023-01-07T20:21:34.477Z,8.37
2023-01-07T20:24:01.607Z,8.38
2023-01-07T20:26:33.183Z,8.43
2023-01-07T20:29:00.978Z,8.40
2023-01-07T20:31:29.680Z,8.36
2023-01-07T20:33:57.683Z,8.39
2023-01-07T20:36:28.056Z,8.34
2023-01-07T20:38:55.093Z,8.33
2023-01-07T20:41:27.126Z,8.33
2023-01-07T20:43:59.381Z,8.35
2023-01-07T20:46:28.504Z,8.36
2023-01-07T20:48:56.670Z,8.34
2023-01-07T20:51:23.598Z,8.38
2023-01-07T20:53:50.658Z,8.41
2023-01-07T20:56:21.971Z,8.36
2023-01-07T20:58:49.675Z,8.28
2023-01-07T21:01:19.713Z,8.29
2023-01-07T21:03:47.071Z,8.33
2023-01-07T21:06:17.489Z,8.27
2023-01-07T21:08:45.776Z,8.14
2023-01-07T21:11:14.347Z,8.00
2023-01-07T21:13:41.464Z,7.89
2023-01-07T21:16:08.540Z,7.83
2023-01-07T21:18:35.705Z,7.80
2023-01-07T21:21:08.489Z,7.81
2023-01-07T21:23:35.459Z,7.79
2023-01-07T21:26:02.218Z,7.82
2023-01-07T21:28:28.954Z,7.88
2023-01-07T21:30:55.795Z,7.96
2023-01-07T21:33:22.555Z,7.99
2023-01-07T21:35:49.303Z,8.02
2023-01-07T21:38:16.094Z,8.05
2023-01-07T21:40:42.923Z,8.01
2023-01-07T21:43:09.673Z,8.03
2023-01-07T21:45:37.300Z,8.00
2023-01-07T21:48:04.225Z,7.99
2023-01-07T21:50:30.974Z,7.98
2023-01-07T21:52:57.845Z,7.96
2023-01-07T21:55:24.774Z,8.00
2023-01-07T21:57:51.501Z,8.07
2023-01-07T22:00:18.412Z,8.11
2023-01-07T22:02:45.285Z,8.18
2023-01-07T22:05:12.214Z,8.20
2023-01-07T22:07:39.735Z,8.18
2023-01-07T22:10:06.915Z,8.18
2023-01-07T22:12:34.256Z,8.22
2023-01-07T22:15:01.390Z,8.14
2023-01-07T22:17:31.005Z,8.10
2023-01-07T22:19:57.791Z,8.10
2023-01-07T22:22:24.563Z,8.10
2023-01-07T22:24:51.342Z,8.06
2023-01-07T22:27:18.637Z,8.01
2023-01-07T22:29:45.524Z,8.00
2023-01-07T22:32:26.632Z,8.05
2023-01-07T22:34:53.409Z,8.06
2023-01-07T22:37:23.991Z,8.07
2023-01-07T22:39:57.769Z,8.03
2023-01-07T22:42:57.984Z,7.98
2023-01-07T22:45:40.949Z,8.15
2023-01-07T22:48:09.904Z,8.27
2023-01-07T22:50:37.297Z,8.31
2023-01-07T22:53:04.425Z,8.38
2023-01-07T22:55:32.757Z,8.37
2023-01-07T22:58:01.362Z,8.35
2023-01-07T23:00:54.833Z,8.26
2023-01-07T23:03:23.170Z,8.22
2023-01-07T23:05:51.395Z,8.21
2023-01-07T23:08:18.480Z,8.18
2023-01-07T23:10:45.629Z,8.16
2023-01-07T23:13:12.481Z,8.17
2023-01-07T23:15:40.082Z,8.11
2023-01-07T23:18:08.948Z,8.07
2023-01-07T23:20:39.373Z,7.98
2023-01-07T23:23:06.222Z,7.95
2023-01-07T23:28:18.406Z,7.95
2023-01-07T23:30:45.422Z,7.92
2023-01-07T23:33:12.541Z,7.88
2023-01-07T23:35:39.354Z,7.91
2023-01-07T23:38:06.387Z,7.94
2023-01-07T23:40:33.245Z,8.01
2023-01-07T23:42:59.969Z,8.03
2023-01-07T23:45:26.808Z,7.98
2023-01-07T23:47:53.693Z,7.93
2023-01-07T23:50:20.484Z,7.91
2023-01-07T23:52:47.241Z,7.87
2023-01-07T23:55:14.038Z,7.92
2023-01-07T23:57:40.766Z,7.96
